sensor_id;sensor_type;location;lat;lon;timestamp;P1;durP1;ratioP1;P2;durP2;ratioP2
23988;SDS011;12202;52.136;5.592;2022-12-18T00:00:43;156.43;;;54.78;;
23988;SDS011;12202;52.136;5.592;2022-12-18T00:03:11;168.48;;;52.83;;
23988;SDS011;12202;52.136;5.592;2022-12-18T00:05:45;167.73;;;54.42;;
23988;SDS011;12202;52.136;5.592;2022-12-18T00:08:11;173.50;;;56.10;;
23988;SDS011;12202;52.136;5.592;2022-12-18T00:10:37;168.77;;;51.25;;
23988;SDS011;12202;52.136;5.592;2022-12-18T00:13:03;174.40;;;54.15;;
23988;SDS011;12202;52.136;5.592;2022-12-18T00:15:29;175.23;;;53.40;;
23988;SDS011;12202;52.136;5.592;2022-12-18T00:17:55;172.27;;;54.22;;
23988;SDS011;12202;52.136;5.592;2022-12-18T00:20:21;180.15;;;55.08;;
23988;SDS011;12202;52.136;5.592;2022-12-18T00:22:50;162.68;;;54.20;;
23988;SDS011;12202;52.136;5.592;2022-12-18T00:25:17;165.02;;;50.05;;
23988;SDS011;12202;52.136;5.592;2022-12-18T00:27:43;170.65;;;56.05;;
23988;SDS011;12202;52.136;5.592;2022-12-18T00:30:09;186.00;;;56.53;;
23988;SDS011;12202;52.136;5.592;2022-12-18T00:32:35;185.95;;;55.75;;
23988;SDS011;12202;52.136;5.592;2022-12-18T00:35:02;191.27;;;54.03;;
23988;SDS011;12202;52.136;5.592;2022-12-18T00:37:28;186.73;;;55.83;;
23988;SDS011;12202;52.136;5.592;2022-12-18T00:39:54;184.10;;;53.20;;
23988;SDS011;12202;52.136;5.592;2022-12-18T00:42:20;173.90;;;53.10;;
23988;SDS011;12202;52.136;5.592;2022-12-18T00:45:05;176.55;;;53.08;;
23988;SDS011;12202;52.136;5.592;2022-12-18T00:47:31;178.38;;;56.42;;
23988;SDS011;12202;52.136;5.592;2022-12-18T00:49:57;185.15;;;56.45;;
23988;SDS011;12202;52.136;5.592;2022-12-18T00:52:23;171.10;;;52.97;;
23988;SDS011;12202;52.136;5.592;2022-12-18T00:54:49;163.07;;;51.63;;
23988;SDS011;12202;52.136;5.592;2022-12-18T00:57:15;169.80;;;53.80;;
23988;SDS011;12202;52.136;5.592;2022-12-18T00:59:41;169.15;;;50.72;;
23988;SDS011;12202;52.136;5.592;2022-12-18T01:02:07;174.20;;;56.22;;
23988;SDS011;12202;52.136;5.592;2022-12-18T01:04:33;179.13;;;53.35;;
23988;SDS011;12202;52.136;5.592;2022-12-18T01:06:59;162.35;;;51.10;;
23988;SDS011;12202;52.136;5.592;2022-12-18T01:09:25;164.27;;;51.45;;
23988;SDS011;12202;52.136;5.592;2022-12-18T01:11:51;171.20;;;51.58;;
23988;SDS011;12202;52.136;5.592;2022-12-18T01:14:17;164.88;;;51.95;;
23988;SDS011;12202;52.136;5.592;2022-12-18T01:16:43;165.60;;;50.83;;
23988;SDS011;12202;52.136;5.592;2022-12-18T01:19:09;164.82;;;50.38;;
23988;SDS011;12202;52.136;5.592;2022-12-18T01:21:35;166.45;;;49.65;;
23988;SDS011;12202;52.136;5.592;2022-12-18T01:24:01;166.82;;;50.75;;
23988;SDS011;12202;52.136;5.592;2022-12-18T01:26:30;144.60;;;48.47;;
23988;SDS011;12202;52.136;5.592;2022-12-18T01:28:56;152.15;;;46.70;;
23988;SDS011;12202;52.136;5.592;2022-12-18T01:31:23;154.60;;;48.92;;
23988;SDS011;12202;52.136;5.592;2022-12-18T01:33:50;143.68;;;48.72;;
23988;SDS011;12202;52.136;5.592;2022-12-18T01:36:21;146.57;;;48.70;;
23988;SDS011;12202;52.136;5.592;2022-12-18T01:38:48;150.80;;;51.10;;
23988;SDS011;12202;52.136;5.592;2022-12-18T01:41:15;154.20;;;49.33;;
23988;SDS011;12202;52.136;5.592;2022-12-18T01:43:46;151.57;;;50.08;;
23988;SDS011;12202;52.136;5.592;2022-12-18T01:46:12;155.25;;;49.45;;
23988;SDS011;12202;52.136;5.592;2022-12-18T01:48:38;154.68;;;50.42;;
23988;SDS011;12202;52.136;5.592;2022-12-18T01:51:05;155.93;;;49.70;;
23988;SDS011;12202;52.136;5.592;2022-12-18T01:53:32;161.20;;;50.00;;
23988;SDS011;12202;52.136;5.592;2022-12-18T01:55:58;160.88;;;50.53;;
23988;SDS011;12202;52.136;5.592;2022-12-18T02:00:56;151.30;;;47.75;;
23988;SDS011;12202;52.136;5.592;2022-12-18T02:03:22;151.50;;;49.55;;
23988;SDS011;12202;52.136;5.592;2022-12-18T02:06:00;150.02;;;47.33;;
23988;SDS011;12202;52.136;5.592;2022-12-18T02:18:38;138.27;;;46.35;;
23988;SDS011;12202;52.136;5.592;2022-12-18T02:21:14;129.23;;;44.95;;
23988;SDS011;12202;52.136;5.592;2022-12-18T02:23:47;146.60;;;46.53;;
23988;SDS011;12202;52.136;5.592;2022-12-18T02:29:03;143.13;;;48.30;;
23988;SDS011;12202;52.136;5.592;2022-12-18T02:31:31;138.52;;;44.67;;
23988;SDS011;12202;52.136;5.592;2022-12-18T02:34:00;127.45;;;43.25;;
23988;SDS011;12202;52.136;5.592;2022-12-18T02:36:27;142.10;;;45.38;;
23988;SDS011;12202;52.136;5.592;2022-12-18T02:38:54;134.63;;;45.47;;
23988;SDS011;12202;52.136;5.592;2022-12-18T02:41:20;132.35;;;45.05;;
23988;SDS011;12202;52.136;5.592;2022-12-18T02:43:48;140.77;;;47.67;;
23988;SDS011;12202;52.136;5.592;2022-12-18T02:48:49;136.25;;;45.05;;
23988;SDS011;12202;52.136;5.592;2022-12-18T02:51:18;126.65;;;46.17;;
23988;SDS011;12202;52.136;5.592;2022-12-18T02:56:50;157.75;;;50.60;;
23988;SDS011;12202;52.136;5.592;2022-12-18T02:59:13;133.23;;;45.75;;
23988;SDS011;12202;52.136;5.592;2022-12-18T03:04:39;149.52;;;49.05;;
23988;SDS011;12202;52.136;5.592;2022-12-18T03:07:14;132.43;;;45.75;;
23988;SDS011;12202;52.136;5.592;2022-12-18T03:09:42;145.32;;;46.47;;
23988;SDS011;12202;52.136;5.592;2022-12-18T03:12:10;140.18;;;46.83;;
23988;SDS011;12202;52.136;5.592;2022-12-18T03:14:51;135.73;;;42.88;;
23988;SDS011;12202;52.136;5.592;2022-12-18T03:17:19;138.40;;;44.65;;
23988;SDS011;12202;52.136;5.592;2022-12-18T03:19:46;127.85;;;43.20;;
23988;SDS011;12202;52.136;5.592;2022-12-18T03:22:13;135.95;;;44.35;;
23988;SDS011;12202;52.136;5.592;2022-12-18T03:24:39;132.70;;;41.90;;
23988;SDS011;12202;52.136;5.592;2022-12-18T03:27:06;127.93;;;44.92;;
23988;SDS011;12202;52.136;5.592;2022-12-18T03:29:42;118.80;;;41.53;;
23988;SDS011;12202;52.136;5.592;2022-12-18T03:32:10;127.50;;;43.53;;
23988;SDS011;12202;52.136;5.592;2022-12-18T03:34:38;128.18;;;42.47;;
23988;SDS011;12202;52.136;5.592;2022-12-18T03:37:05;127.38;;;42.72;;
23988;SDS011;12202;52.136;5.592;2022-12-18T03:39:32;127.20;;;41.60;;
23988;SDS011;12202;52.136;5.592;2022-12-18T03:42:05;115.05;;;41.05;;
23988;SDS011;12202;52.136;5.592;2022-12-18T03:44:36;131.45;;;42.13;;
23988;SDS011;12202;52.136;5.592;2022-12-18T03:47:19;119.53;;;42.78;;
23988;SDS011;12202;52.136;5.592;2022-12-18T03:49:50;115.22;;;42.13;;
23988;SDS011;12202;52.136;5.592;2022-12-18T03:52:20;114.55;;;40.53;;
23988;SDS011;12202;52.136;5.592;2022-12-18T03:54:50;115.25;;;40.13;;
23988;SDS011;12202;52.136;5.592;2022-12-18T03:57:18;117.10;;;39.42;;
23988;SDS011;12202;52.136;5.592;2022-12-18T03:59:45;113.45;;;41.08;;
23988;SDS011;12202;52.136;5.592;2022-12-18T04:02:12;119.05;;;42.15;;
23988;SDS011;12202;52.136;5.592;2022-12-18T04:04:39;112.47;;;39.42;;
23988;SDS011;12202;52.136;5.592;2022-12-18T04:07:06;117.82;;;38.67;;
23988;SDS011;12202;52.136;5.592;2022-12-18T04:09:32;118.47;;;45.10;;
23988;SDS011;12202;52.136;5.592;2022-12-18T04:11:59;123.60;;;42.63;;
23988;SDS011;12202;52.136;5.592;2022-12-18T04:14:25;130.60;;;42.55;;
23988;SDS011;12202;52.136;5.592;2022-12-18T04:16:51;116.95;;;43.78;;
23988;SDS011;12202;52.136;5.592;2022-12-18T04:19:17;118.70;;;41.90;;
23988;SDS011;12202;52.136;5.592;2022-12-18T04:21:43;112.75;;;39.80;;
23988;SDS011;12202;52.136;5.592;2022-12-18T04:24:09;120.65;;;42.38;;
23988;SDS011;12202;52.136;5.592;2022-12-18T04:26:35;122.25;;;41.42;;
23988;SDS011;12202;52.136;5.592;2022-12-18T04:29:01;120.28;;;40.75;;
23988;SDS011;12202;52.136;5.592;2022-12-18T04:31:28;106.53;;;38.08;;
23988;SDS011;12202;52.136;5.592;2022-12-18T04:33:54;103.47;;;38.33;;
23988;SDS011;12202;52.136;5.592;2022-12-18T04:36:20;117.07;;;39.88;;
23988;SDS011;12202;52.136;5.592;2022-12-18T04:38:46;106.05;;;40.92;;
23988;SDS011;12202;52.136;5.592;2022-12-18T04:41:14;100.82;;;36.72;;
23988;SDS011;12202;52.136;5.592;2022-12-18T04:43:40;109.35;;;37.42;;
23988;SDS011;12202;52.136;5.592;2022-12-18T04:46:07;104.15;;;37.35;;
23988;SDS011;12202;52.136;5.592;2022-12-18T04:48:33;92.20;;;36.22;;
23988;SDS011;12202;52.136;5.592;2022-12-18T04:50:59;105.78;;;39.72;;
23988;SDS011;12202;52.136;5.592;2022-12-18T04:53:25;97.90;;;36.05;;
23988;SDS011;12202;52.136;5.592;2022-12-18T04:56:01;99.65;;;35.47;;
23988;SDS011;12202;52.136;5.592;2022-12-18T04:58:27;99.10;;;34.60;;
23988;SDS011;12202;52.136;5.592;2022-12-18T05:00:53;91.80;;;34.92;;
23988;SDS011;12202;52.136;5.592;2022-12-18T05:03:19;91.38;;;34.10;;
23988;SDS011;12202;52.136;5.592;2022-12-18T05:05:48;84.82;;;33.50;;
23988;SDS011;12202;52.136;5.592;2022-12-18T05:08:14;90.72;;;34.65;;
23988;SDS011;12202;52.136;5.592;2022-12-18T05:10:40;88.78;;;33.72;;
23988;SDS011;12202;52.136;5.592;2022-12-18T05:13:06;91.40;;;34.05;;
23988;SDS011;12202;52.136;5.592;2022-12-18T05:15:32;92.88;;;35.53;;
23988;SDS011;12202;52.136;5.592;2022-12-18T05:17:58;87.30;;;34.17;;
23988;SDS011;12202;52.136;5.592;2022-12-18T05:20:24;92.07;;;34.30;;
23988;SDS011;12202;52.136;5.592;2022-12-18T05:22:51;78.28;;;32.05;;
23988;SDS011;12202;52.136;5.592;2022-12-18T05:25:17;89.28;;;32.95;;
23988;SDS011;12202;52.136;5.592;2022-12-18T05:27:43;91.32;;;32.10;;
23988;SDS011;12202;52.136;5.592;2022-12-18T05:30:10;77.80;;;31.60;;
23988;SDS011;12202;52.136;5.592;2022-12-18T05:32:36;80.20;;;31.98;;
23988;SDS011;12202;52.136;5.592;2022-12-18T05:35:02;95.13;;;34.75;;
23988;SDS011;12202;52.136;5.592;2022-12-18T05:37:28;83.30;;;33.15;;
23988;SDS011;12202;52.136;5.592;2022-12-18T05:39:54;79.47;;;31.15;;
23988;SDS011;12202;52.136;5.592;2022-12-18T05:42:20;74.97;;;30.85;;
23988;SDS011;12202;52.136;5.592;2022-12-18T05:44:46;86.93;;;31.55;;
23988;SDS011;12202;52.136;5.592;2022-12-18T05:47:13;84.00;;;32.58;;
23988;SDS011;12202;52.136;5.592;2022-12-18T05:49:39;78.82;;;31.70;;
23988;SDS011;12202;52.136;5.592;2022-12-18T05:52:05;78.20;;;31.85;;
23988;SDS011;12202;52.136;5.592;2022-12-18T05:54:31;89.35;;;33.70;;
23988;SDS011;12202;52.136;5.592;2022-12-18T05:56:57;83.97;;;31.45;;
23988;SDS011;12202;52.136;5.592;2022-12-18T05:59:23;86.03;;;31.48;;
23988;SDS011;12202;52.136;5.592;2022-12-18T06:01:49;74.32;;;30.42;;
23988;SDS011;12202;52.136;5.592;2022-12-18T06:04:16;73.43;;;31.00;;
23988;SDS011;12202;52.136;5.592;2022-12-18T06:06:42;70.53;;;29.52;;
23988;SDS011;12202;52.136;5.592;2022-12-18T06:09:08;74.22;;;28.75;;
23988;SDS011;12202;52.136;5.592;2022-12-18T06:11:35;71.63;;;28.23;;
23988;SDS011;12202;52.136;5.592;2022-12-18T06:14:01;74.93;;;29.17;;
23988;SDS011;12202;52.136;5.592;2022-12-18T06:16:28;73.13;;;29.13;;
23988;SDS011;12202;52.136;5.592;2022-12-18T06:18:58;79.13;;;31.02;;
23988;SDS011;12202;52.136;5.592;2022-12-18T06:21:24;68.55;;;30.80;;
23988;SDS011;12202;52.136;5.592;2022-12-18T06:23:50;77.40;;;30.42;;
23988;SDS011;12202;52.136;5.592;2022-12-18T06:26:16;78.57;;;32.13;;
23988;SDS011;12202;52.136;5.592;2022-12-18T06:28:42;70.65;;;29.90;;
23988;SDS011;12202;52.136;5.592;2022-12-18T06:31:08;67.30;;;29.58;;
23988;SDS011;12202;52.136;5.592;2022-12-18T06:33:34;69.00;;;29.58;;
23988;SDS011;12202;52.136;5.592;2022-12-18T06:36:01;67.22;;;29.50;;
23988;SDS011;12202;52.136;5.592;2022-12-18T06:38:27;79.38;;;31.10;;
23988;SDS011;12202;52.136;5.592;2022-12-18T06:40:53;72.18;;;29.17;;
23988;SDS011;12202;52.136;5.592;2022-12-18T06:43:19;77.93;;;32.03;;
23988;SDS011;12202;52.136;5.592;2022-12-18T06:45:45;76.28;;;32.35;;
23988;SDS011;12202;52.136;5.592;2022-12-18T06:48:17;76.93;;;29.63;;
23988;SDS011;12202;52.136;5.592;2022-12-18T06:50:43;68.75;;;29.15;;
23988;SDS011;12202;52.136;5.592;2022-12-18T06:53:09;70.93;;;29.42;;
23988;SDS011;12202;52.136;5.592;2022-12-18T06:55:35;69.95;;;31.08;;
23988;SDS011;12202;52.136;5.592;2022-12-18T06:58:01;72.18;;;30.65;;
23988;SDS011;12202;52.136;5.592;2022-12-18T07:00:27;69.95;;;30.35;;
23988;SDS011;12202;52.136;5.592;2022-12-18T07:02:53;72.75;;;29.90;;
23988;SDS011;12202;52.136;5.592;2022-12-18T07:05:19;77.78;;;30.90;;
23988;SDS011;12202;52.136;5.592;2022-12-18T07:07:45;84.25;;;35.75;;
23988;SDS011;12202;52.136;5.592;2022-12-18T07:10:11;112.03;;;46.20;;
23988;SDS011;12202;52.136;5.592;2022-12-18T07:12:37;109.40;;;45.92;;
23988;SDS011;12202;52.136;5.592;2022-12-18T07:15:03;102.40;;;42.38;;
23988;SDS011;12202;52.136;5.592;2022-12-18T07:17:29;109.47;;;42.45;;
23988;SDS011;12202;52.136;5.592;2022-12-18T07:19:55;91.32;;;38.08;;
23988;SDS011;12202;52.136;5.592;2022-12-18T07:22:21;86.05;;;35.05;;
23988;SDS011;12202;52.136;5.592;2022-12-18T07:24:50;84.60;;;34.28;;
23988;SDS011;12202;52.136;5.592;2022-12-18T07:27:16;71.35;;;32.63;;
23988;SDS011;12202;52.136;5.592;2022-12-18T07:29:42;77.85;;;33.50;;
23988;SDS011;12202;52.136;5.592;2022-12-18T07:32:08;77.22;;;32.92;;
23988;SDS011;12202;52.136;5.592;2022-12-18T07:34:34;81.07;;;34.38;;
23988;SDS011;12202;52.136;5.592;2022-12-18T07:37:00;80.93;;;34.67;;
23988;SDS011;12202;52.136;5.592;2022-12-18T07:39:26;87.78;;;36.35;;
23988;SDS011;12202;52.136;5.592;2022-12-18T07:41:52;77.45;;;33.88;;
23988;SDS011;12202;52.136;5.592;2022-12-18T07:44:37;92.00;;;32.88;;
23988;SDS011;12202;52.136;5.592;2022-12-18T07:47:04;77.93;;;31.52;;
23988;SDS011;12202;52.136;5.592;2022-12-18T07:49:30;72.32;;;32.67;;
23988;SDS011;12202;52.136;5.592;2022-12-18T07:51:56;83.90;;;33.03;;
23988;SDS011;12202;52.136;5.592;2022-12-18T07:54:23;82.28;;;31.52;;
23988;SDS011;12202;52.136;5.592;2022-12-18T07:56:50;82.63;;;35.72;;
23988;SDS011;12202;52.136;5.592;2022-12-18T07:59:16;79.07;;;32.83;;
23988;SDS011;12202;52.136;5.592;2022-12-18T08:01:42;78.00;;;34.05;;
23988;SDS011;12202;52.136;5.592;2022-12-18T08:04:08;77.93;;;32.72;;
23988;SDS011;12202;52.136;5.592;2022-12-18T08:06:34;80.03;;;32.83;;
23988;SDS011;12202;52.136;5.592;2022-12-18T08:09:00;76.10;;;32.92;;
23988;SDS011;12202;52.136;5.592;2022-12-18T08:11:26;85.07;;;34.15;;
23988;SDS011;12202;52.136;5.592;2022-12-18T08:13:53;78.43;;;34.03;;
23988;SDS011;12202;52.136;5.592;2022-12-18T08:16:19;83.00;;;36.55;;
23988;SDS011;12202;52.136;5.592;2022-12-18T08:18:45;79.45;;;35.63;;
23988;SDS011;12202;52.136;5.592;2022-12-18T08:21:12;74.85;;;32.63;;
23988;SDS011;12202;52.136;5.592;2022-12-18T08:23:39;77.10;;;34.92;;
23988;SDS011;12202;52.136;5.592;2022-12-18T08:26:06;74.43;;;32.00;;
23988;SDS011;12202;52.136;5.592;2022-12-18T08:28:33;68.70;;;29.20;;
23988;SDS011;12202;52.136;5.592;2022-12-18T08:30:59;72.70;;;31.13;;
23988;SDS011;12202;52.136;5.592;2022-12-18T08:33:25;72.88;;;31.77;;
23988;SDS011;12202;52.136;5.592;2022-12-18T08:35:52;65.50;;;27.60;;
23988;SDS011;12202;52.136;5.592;2022-12-18T08:38:18;64.30;;;26.75;;
23988;SDS011;12202;52.136;5.592;2022-12-18T08:40:44;70.63;;;28.33;;
23988;SDS011;12202;52.136;5.592;2022-12-18T08:43:10;55.65;;;24.80;;
23988;SDS011;12202;52.136;5.592;2022-12-18T08:46:00;55.97;;;25.27;;
23988;SDS011;12202;52.136;5.592;2022-12-18T08:48:26;62.60;;;24.70;;
23988;SDS011;12202;52.136;5.592;2022-12-18T08:50:55;54.25;;;24.63;;
23988;SDS011;12202;52.136;5.592;2022-12-18T08:53:21;53.53;;;23.88;;
23988;SDS011;12202;52.136;5.592;2022-12-18T08:55:47;56.55;;;23.67;;
23988;SDS011;12202;52.136;5.592;2022-12-18T08:58:13;52.65;;;24.27;;
23988;SDS011;12202;52.136;5.592;2022-12-18T09:00:39;54.47;;;24.05;;
23988;SDS011;12202;52.136;5.592;2022-12-18T09:03:05;57.17;;;24.02;;
23988;SDS011;12202;52.136;5.592;2022-12-18T09:05:36;55.95;;;22.98;;
23988;SDS011;12202;52.136;5.592;2022-12-18T09:08:02;52.97;;;24.38;;
23988;SDS011;12202;52.136;5.592;2022-12-18T09:10:27;55.42;;;24.90;;
23988;SDS011;12202;52.136;5.592;2022-12-18T09:12:53;51.45;;;23.60;;
23988;SDS011;12202;52.136;5.592;2022-12-18T09:15:21;47.58;;;22.25;;
23988;SDS011;12202;52.136;5.592;2022-12-18T09:17:47;54.25;;;22.85;;
23988;SDS011;12202;52.136;5.592;2022-12-18T09:20:14;53.05;;;24.67;;
23988;SDS011;12202;52.136;5.592;2022-12-18T09:22:40;50.22;;;23.35;;
23988;SDS011;12202;52.136;5.592;2022-12-18T09:25:06;56.28;;;25.17;;
23988;SDS011;12202;52.136;5.592;2022-12-18T09:27:33;60.28;;;26.02;;
23988;SDS011;12202;52.136;5.592;2022-12-18T09:30:00;48.75;;;21.70;;
23988;SDS011;12202;52.136;5.592;2022-12-18T09:32:26;54.47;;;24.42;;
23988;SDS011;12202;52.136;5.592;2022-12-18T09:34:52;48.00;;;22.23;;
23988;SDS011;12202;52.136;5.592;2022-12-18T09:37:18;46.17;;;22.55;;
23988;SDS011;12202;52.136;5.592;2022-12-18T09:39:44;47.58;;;23.55;;
23988;SDS011;12202;52.136;5.592;2022-12-18T09:42:12;58.05;;;25.50;;
23988;SDS011;12202;52.136;5.592;2022-12-18T09:44:43;51.30;;;23.73;;
23988;SDS011;12202;52.136;5.592;2022-12-18T09:49:39;47.45;;;20.80;;
23988;SDS011;12202;52.136;5.592;2022-12-18T09:52:12;42.80;;;19.60;;
23988;SDS011;12202;52.136;5.592;2022-12-18T09:54:40;48.08;;;19.88;;
23988;SDS011;12202;52.136;5.592;2022-12-18T09:57:09;39.72;;;18.55;;
23988;SDS011;12202;52.136;5.592;2022-12-18T09:59:37;46.58;;;20.67;;
23988;SDS011;12202;52.136;5.592;2022-12-18T10:02:14;44.95;;;19.58;;
23988;SDS011;12202;52.136;5.592;2022-12-18T10:04:40;40.30;;;19.55;;
23988;SDS011;12202;52.136;5.592;2022-12-18T10:07:18;41.88;;;19.92;;
23988;SDS011;12202;52.136;5.592;2022-12-18T10:10:02;46.85;;;20.35;;
23988;SDS011;12202;52.136;5.592;2022-12-18T10:12:32;41.20;;;18.70;;
23988;SDS011;12202;52.136;5.592;2022-12-18T10:17:44;46.13;;;18.48;;
23988;SDS011;12202;52.136;5.592;2022-12-18T10:22:43;46.20;;;19.75;;
23988;SDS011;12202;52.136;5.592;2022-12-18T10:25:35;42.53;;;18.67;;
23988;SDS011;12202;52.136;5.592;2022-12-18T10:28:00;44.60;;;19.67;;
23988;SDS011;12202;52.136;5.592;2022-12-18T10:30:32;42.22;;;19.58;;
23988;SDS011;12202;52.136;5.592;2022-12-18T10:33:02;39.90;;;18.63;;
23988;SDS011;12202;52.136;5.592;2022-12-18T10:35:28;47.53;;;20.10;;
23988;SDS011;12202;52.136;5.592;2022-12-18T10:38:04;42.72;;;19.70;;
23988;SDS011;12202;52.136;5.592;2022-12-18T10:40:31;57.95;;;22.10;;
23988;SDS011;12202;52.136;5.592;2022-12-18T10:43:04;55.25;;;21.20;;
23988;SDS011;12202;52.136;5.592;2022-12-18T10:45:30;44.67;;;19.45;;
23988;SDS011;12202;52.136;5.592;2022-12-18T10:47:56;68.25;;;22.92;;
23988;SDS011;12202;52.136;5.592;2022-12-18T10:52:53;47.50;;;20.08;;
23988;SDS011;12202;52.136;5.592;2022-12-18T10:55:19;42.75;;;18.15;;
23988;SDS011;12202;52.136;5.592;2022-12-18T10:57:46;39.42;;;18.17;;
23988;SDS011;12202;52.136;5.592;2022-12-18T11:00:28;46.25;;;21.25;;
23988;SDS011;12202;52.136;5.592;2022-12-18T11:02:55;49.95;;;22.58;;
23988;SDS011;12202;52.136;5.592;2022-12-18T11:05:29;58.10;;;24.08;;
23988;SDS011;12202;52.136;5.592;2022-12-18T11:07:56;48.33;;;22.30;;
23988;SDS011;12202;52.136;5.592;2022-12-18T11:10:27;51.63;;;23.02;;
23988;SDS011;12202;52.136;5.592;2022-12-18T11:12:54;51.15;;;22.65;;
23988;SDS011;12202;52.136;5.592;2022-12-18T11:15:29;52.90;;;21.58;;
23988;SDS011;12202;52.136;5.592;2022-12-18T11:17:56;50.17;;;21.40;;
23988;SDS011;12202;52.136;5.592;2022-12-18T11:20:32;51.95;;;21.05;;
23988;SDS011;12202;52.136;5.592;2022-12-18T11:23:00;42.83;;;19.27;;
23988;SDS011;12202;52.136;5.592;2022-12-18T11:25:27;39.63;;;18.50;;
23988;SDS011;12202;52.136;5.592;2022-12-18T11:28:03;45.20;;;20.50;;
23988;SDS011;12202;52.136;5.592;2022-12-18T11:30:31;42.42;;;19.88;;
23988;SDS011;12202;52.136;5.592;2022-12-18T11:33:01;40.53;;;18.98;;
23988;SDS011;12202;52.136;5.592;2022-12-18T11:35:49;43.38;;;19.92;;
23988;SDS011;12202;52.136;5.592;2022-12-18T11:38:18;48.33;;;21.48;;
23988;SDS011;12202;52.136;5.592;2022-12-18T11:40:50;42.65;;;19.25;;
23988;SDS011;12202;52.136;5.592;2022-12-18T11:43:31;41.47;;;19.10;;
23988;SDS011;12202;52.136;5.592;2022-12-18T11:46:06;45.03;;;20.45;;
23988;SDS011;12202;52.136;5.592;2022-12-18T11:48:38;40.92;;;19.38;;
23988;SDS011;12202;52.136;5.592;2022-12-18T11:51:09;43.08;;;19.67;;
23988;SDS011;12202;52.136;5.592;2022-12-18T11:53:36;38.15;;;19.85;;
23988;SDS011;12202;52.136;5.592;2022-12-18T12:01:21;49.08;;;22.90;;
23988;SDS011;12202;52.136;5.592;2022-12-18T12:09:04;44.03;;;18.75;;
23988;SDS011;12202;52.136;5.592;2022-12-18T12:16:37;50.72;;;22.65;;
23988;SDS011;12202;52.136;5.592;2022-12-18T12:21:54;48.10;;;21.17;;
23988;SDS011;12202;52.136;5.592;2022-12-18T12:26:52;36.80;;;18.80;;
23988;SDS011;12202;52.136;5.592;2022-12-18T12:37:12;39.90;;;19.42;;
23988;SDS011;12202;52.136;5.592;2022-12-18T12:39:40;40.60;;;19.08;;
23988;SDS011;12202;52.136;5.592;2022-12-18T12:45:14;50.13;;;20.33;;
23988;SDS011;12202;52.136;5.592;2022-12-18T12:47:41;47.95;;;19.88;;
23988;SDS011;12202;52.136;5.592;2022-12-18T12:50:12;46.17;;;20.38;;
23988;SDS011;12202;52.136;5.592;2022-12-18T12:52:39;47.60;;;21.73;;
23988;SDS011;12202;52.136;5.592;2022-12-18T12:55:12;44.10;;;21.30;;
23988;SDS011;12202;52.136;5.592;2022-12-18T12:57:40;47.72;;;23.35;;
23988;SDS011;12202;52.136;5.592;2022-12-18T13:00:10;47.25;;;19.75;;
23988;SDS011;12202;52.136;5.592;2022-12-18T13:02:39;48.47;;;21.85;;
23988;SDS011;12202;52.136;5.592;2022-12-18T13:05:16;45.13;;;21.02;;
23988;SDS011;12202;52.136;5.592;2022-12-18T13:07:49;48.88;;;21.10;;
23988;SDS011;12202;52.136;5.592;2022-12-18T13:13:21;43.50;;;21.48;;
23988;SDS011;12202;52.136;5.592;2022-12-18T13:15:47;51.55;;;21.13;;
23988;SDS011;12202;52.136;5.592;2022-12-18T13:18:23;41.25;;;20.63;;
23988;SDS011;12202;52.136;5.592;2022-12-18T13:25:48;45.00;;;19.25;;
23988;SDS011;12202;52.136;5.592;2022-12-18T13:35:40;45.05;;;19.95;;
23988;SDS011;12202;52.136;5.592;2022-12-18T13:38:20;43.00;;;19.13;;
23988;SDS011;12202;52.136;5.592;2022-12-18T13:45:45;54.03;;;19.77;;
23988;SDS011;12202;52.136;5.592;2022-12-18T13:48:31;48.20;;;21.75;;
23988;SDS011;12202;52.136;5.592;2022-12-18T13:53:34;45.22;;;19.65;;
23988;SDS011;12202;52.136;5.592;2022-12-18T13:56:02;44.60;;;22.10;;
23988;SDS011;12202;52.136;5.592;2022-12-18T13:58:29;44.15;;;21.05;;
23988;SDS011;12202;52.136;5.592;2022-12-18T14:00:55;47.25;;;22.17;;
23988;SDS011;12202;52.136;5.592;2022-12-18T14:03:25;45.35;;;20.17;;
23988;SDS011;12202;52.136;5.592;2022-12-18T14:05:52;45.15;;;20.42;;
23988;SDS011;12202;52.136;5.592;2022-12-18T14:08:19;52.90;;;22.17;;
23988;SDS011;12202;52.136;5.592;2022-12-18T14:10:46;43.85;;;19.98;;
23988;SDS011;12202;52.136;5.592;2022-12-18T14:13:21;46.92;;;21.25;;
23988;SDS011;12202;52.136;5.592;2022-12-18T14:15:49;53.63;;;20.10;;
23988;SDS011;12202;52.136;5.592;2022-12-18T14:18:19;44.60;;;20.02;;
23988;SDS011;12202;52.136;5.592;2022-12-18T14:20:46;44.10;;;20.38;;
23988;SDS011;12202;52.136;5.592;2022-12-18T14:25:57;52.45;;;21.98;;
23988;SDS011;12202;52.136;5.592;2022-12-18T14:28:23;44.33;;;20.80;;
23988;SDS011;12202;52.136;5.592;2022-12-18T14:30:51;44.75;;;20.20;;
23988;SDS011;12202;52.136;5.592;2022-12-18T14:33:18;41.50;;;19.80;;
23988;SDS011;12202;52.136;5.592;2022-12-18T14:40:56;56.00;;;23.65;;
23988;SDS011;12202;52.136;5.592;2022-12-18T14:43:23;46.13;;;20.95;;
23988;SDS011;12202;52.136;5.592;2022-12-18T14:45:49;51.65;;;21.27;;
23988;SDS011;12202;52.136;5.592;2022-12-18T14:48:17;50.47;;;21.60;;
23988;SDS011;12202;52.136;5.592;2022-12-18T14:50:44;43.60;;;22.10;;
23988;SDS011;12202;52.136;5.592;2022-12-18T14:53:20;50.65;;;22.60;;
23988;SDS011;12202;52.136;5.592;2022-12-18T14:55:47;53.22;;;22.02;;
23988;SDS011;12202;52.136;5.592;2022-12-18T14:58:14;44.45;;;21.40;;
23988;SDS011;12202;52.136;5.592;2022-12-18T15:00:41;42.40;;;20.05;;
23988;SDS011;12202;52.136;5.592;2022-12-18T15:03:07;44.13;;;21.00;;
23988;SDS011;12202;52.136;5.592;2022-12-18T15:05:34;50.97;;;22.10;;
23988;SDS011;12202;52.136;5.592;2022-12-18T15:08:01;54.28;;;22.98;;
23988;SDS011;12202;52.136;5.592;2022-12-18T15:10:28;47.05;;;20.63;;
23988;SDS011;12202;52.136;5.592;2022-12-18T15:18:03;47.78;;;22.92;;
23988;SDS011;12202;52.136;5.592;2022-12-18T15:20:31;45.80;;;22.23;;
23988;SDS011;12202;52.136;5.592;2022-12-18T15:22:58;50.80;;;23.58;;
23988;SDS011;12202;52.136;5.592;2022-12-18T15:25:34;51.67;;;24.80;;
23988;SDS011;12202;52.136;5.592;2022-12-18T15:28:02;49.42;;;23.15;;
23988;SDS011;12202;52.136;5.592;2022-12-18T15:30:29;54.15;;;24.52;;
23988;SDS011;12202;52.136;5.592;2022-12-18T15:35:58;58.58;;;26.75;;
23988;SDS011;12202;52.136;5.592;2022-12-18T15:38:24;56.38;;;25.58;;
23988;SDS011;12202;52.136;5.592;2022-12-18T15:40:50;52.38;;;23.08;;
23988;SDS011;12202;52.136;5.592;2022-12-18T15:43:16;56.15;;;24.02;;
23988;SDS011;12202;52.136;5.592;2022-12-18T15:48:27;54.80;;;24.42;;
23988;SDS011;12202;52.136;5.592;2022-12-18T15:50:54;58.95;;;23.20;;
23988;SDS011;12202;52.136;5.592;2022-12-18T15:53:21;50.15;;;24.30;;
23988;SDS011;12202;52.136;5.592;2022-12-18T15:55:48;52.22;;;24.75;;
23988;SDS011;12202;52.136;5.592;2022-12-18T15:58:33;54.58;;;23.85;;
23988;SDS011;12202;52.136;5.592;2022-12-18T16:00:59;61.30;;;25.70;;
23988;SDS011;12202;52.136;5.592;2022-12-18T16:03:26;56.83;;;24.52;;
23988;SDS011;12202;52.136;5.592;2022-12-18T16:05:52;62.38;;;24.45;;
23988;SDS011;12202;52.136;5.592;2022-12-18T16:08:18;54.05;;;24.95;;
23988;SDS011;12202;52.136;5.592;2022-12-18T16:10:44;59.63;;;25.75;;